KHEZ/HEZ METAR and TAF weather

Enter ICAO airport designator
Station Type Date Time Source
KHEZ METAR 2024/04/18 06:56 UTC NOAA

KHEZ 180656Z AUTO VRB03KT 9SM FEW024 21/21 A3008 RMK AO2 SLP183 T02110206


Station Type Date Time Source
KHEZ Decoded METAR 2024/04/18 06:56 UTC NOAA

Natchez, Hardy-Anders Field Natchez-Adams County Airport, MS, United States (KHEZ) 31-37N 091-18W
Apr 18, 2024 - 02:56 AM EDT / 2024.04.18 0656 UTC
Wind: Variable at 3 MPH (3 KT):0
Visibility: 9 mile(s):0
Sky conditions: mostly clear
Temperature: 70.0 F (21.1 C)
Dew Point: 69.1 F (20.6 C)
Relative Humidity: 96%
Pressure (altimeter): 30.08 in. Hg (1018 hPa)
ob: KHEZ 180656Z AUTO VRB03KT 9SM FEW024 21/21 A3008 RMK AO2 SLP183 T02110206
cycle: 7

Station Type Date Time Source
KHEZ TAF 2024/04/18 06:14 UTC NOAA